sensor_id;sensor_type;location;lat;lon;timestamp;temperature;humidity
23748;DHT22;12054;53.662;10.126;2023-06-14T00:01:37;17.70;94.40
23748;DHT22;12054;53.662;10.126;2023-06-14T00:04:03;17.70;94.40
23748;DHT22;12054;53.662;10.126;2023-06-14T00:06:31;17.70;94.50
23748;DHT22;12054;53.662;10.126;2023-06-14T00:08:56;17.60;94.60
23748;DHT22;12054;53.662;10.126;2023-06-14T00:11:22;17.60;94.70
23748;DHT22;12054;53.662;10.126;2023-06-14T00:13:47;17.60;94.70
23748;DHT22;12054;53.662;10.126;2023-06-14T00:16:13;17.60;94.80
23748;DHT22;12054;53.662;10.126;2023-06-14T00:18:38;17.60;94.90
23748;DHT22;12054;53.662;10.126;2023-06-14T00:21:05;17.60;95.00
23748;DHT22;12054;53.662;10.126;2023-06-14T00:23:30;17.50;95.00
23748;DHT22;12054;53.662;10.126;2023-06-14T00:25:56;17.50;95.10
23748;DHT22;12054;53.662;10.126;2023-06-14T00:28:22;17.50;95.20
23748;DHT22;12054;53.662;10.126;2023-06-14T00:30:47;17.50;95.30
23748;DHT22;12054;53.662;10.126;2023-06-14T00:33:13;17.50;95.40
23748;DHT22;12054;53.662;10.126;2023-06-14T00:35:38;17.40;95.50
23748;DHT22;12054;53.662;10.126;2023-06-14T00:38:04;17.40;95.50
23748;DHT22;12054;53.662;10.126;2023-06-14T00:40:30;17.40;95.60
23748;DHT22;12054;53.662;10.126;2023-06-14T00:42:55;17.40;95.60
23748;DHT22;12054;53.662;10.126;2023-06-14T00:45:21;17.30;95.60
23748;DHT22;12054;53.662;10.126;2023-06-14T00:47:47;17.40;95.80
23748;DHT22;12054;53.662;10.126;2023-06-14T00:50:16;17.30;95.80
23748;DHT22;12054;53.662;10.126;2023-06-14T00:52:41;17.30;95.90
23748;DHT22;12054;53.662;10.126;2023-06-14T00:55:07;17.20;96.00
23748;DHT22;12054;53.662;10.126;2023-06-14T00:57:33;17.20;96.10
23748;DHT22;12054;53.662;10.126;2023-06-14T00:59:58;17.20;96.20
23748;DHT22;12054;53.662;10.126;2023-06-14T01:02:24;17.20;96.30
23748;DHT22;12054;53.662;10.126;2023-06-14T01:04:50;17.10;96.30
23748;DHT22;12054;53.662;10.126;2023-06-14T01:07:51;17.10;96.40
23748;DHT22;12054;53.662;10.126;2023-06-14T01:10:51;17.10;96.50
23748;DHT22;12054;53.662;10.126;2023-06-14T01:13:21;17.10;96.60
23748;DHT22;12054;53.662;10.126;2023-06-14T01:15:50;17.10;96.60
23748;DHT22;12054;53.662;10.126;2023-06-14T01:18:16;17.00;96.60
23748;DHT22;12054;53.662;10.126;2023-06-14T01:20:43;17.00;96.60
23748;DHT22;12054;53.662;10.126;2023-06-14T01:23:11;17.00;96.70
23748;DHT22;12054;53.662;10.126;2023-06-14T01:25:39;17.00;96.80
23748;DHT22;12054;53.662;10.126;2023-06-14T01:28:10;16.90;96.80
23748;DHT22;12054;53.662;10.126;2023-06-14T01:30:37;16.90;96.90
23748;DHT22;12054;53.662;10.126;2023-06-14T01:33:04;16.90;96.90
23748;DHT22;12054;53.662;10.126;2023-06-14T01:35:30;16.90;97.00
23748;DHT22;12054;53.662;10.126;2023-06-14T01:37:56;16.80;97.00
23748;DHT22;12054;53.662;10.126;2023-06-14T01:40:22;16.80;97.10
23748;DHT22;12054;53.662;10.126;2023-06-14T01:42:50;16.80;97.20
23748;DHT22;12054;53.662;10.126;2023-06-14T01:45:16;16.80;97.30
23748;DHT22;12054;53.662;10.126;2023-06-14T01:47:44;16.80;97.30
23748;DHT22;12054;53.662;10.126;2023-06-14T01:50:10;16.70;97.30
23748;DHT22;12054;53.662;10.126;2023-06-14T01:52:37;16.80;97.40
23748;DHT22;12054;53.662;10.126;2023-06-14T01:55:04;16.70;97.50
23748;DHT22;12054;53.662;10.126;2023-06-14T01:57:30;16.70;97.50
23748;DHT22;12054;53.662;10.126;2023-06-14T01:59:55;16.70;97.60
23748;DHT22;12054;53.662;10.126;2023-06-14T02:02:21;16.70;98.00
23748;DHT22;12054;53.662;10.126;2023-06-14T02:04:47;16.70;97.70
23748;DHT22;12054;53.662;10.126;2023-06-14T02:07:13;16.70;97.90
23748;DHT22;12054;53.662;10.126;2023-06-14T02:09:38;16.60;97.90
23748;DHT22;12054;53.662;10.126;2023-06-14T02:12:04;16.60;98.00
23748;DHT22;12054;53.662;10.126;2023-06-14T02:14:30;16.60;98.10
23748;DHT22;12054;53.662;10.126;2023-06-14T02:16:55;16.60;98.30
23748;DHT22;12054;53.662;10.126;2023-06-14T02:19:21;16.60;98.30
23748;DHT22;12054;53.662;10.126;2023-06-14T02:21:47;16.50;98.40
23748;DHT22;12054;53.662;10.126;2023-06-14T02:24:13;16.50;98.40
23748;DHT22;12054;53.662;10.126;2023-06-14T02:26:39;16.50;98.50
23748;DHT22;12054;53.662;10.126;2023-06-14T02:29:05;16.50;98.90
23748;DHT22;12054;53.662;10.126;2023-06-14T02:31:32;16.50;98.60
23748;DHT22;12054;53.662;10.126;2023-06-14T02:33:58;16.50;98.60
23748;DHT22;12054;53.662;10.126;2023-06-14T02:36:23;16.40;98.60
23748;DHT22;12054;53.662;10.126;2023-06-14T02:38:49;16.40;98.70
23748;DHT22;12054;53.662;10.126;2023-06-14T02:41:15;16.40;98.70
23748;DHT22;12054;53.662;10.126;2023-06-14T02:43:40;16.40;98.80
23748;DHT22;12054;53.662;10.126;2023-06-14T02:46:06;16.30;99.20
23748;DHT22;12054;53.662;10.126;2023-06-14T02:48:32;16.30;98.90
23748;DHT22;12054;53.662;10.126;2023-06-14T02:50:58;16.30;98.90
23748;DHT22;12054;53.662;10.126;2023-06-14T02:53:23;16.30;99.00
23748;DHT22;12054;53.662;10.126;2023-06-14T02:55:49;16.30;99.10
23748;DHT22;12054;53.662;10.126;2023-06-14T02:58:14;16.30;99.20
23748;DHT22;12054;53.662;10.126;2023-06-14T03:00:41;16.20;99.20
23748;DHT22;12054;53.662;10.126;2023-06-14T03:03:08;16.20;99.20
23748;DHT22;12054;53.662;10.126;2023-06-14T03:05:43;16.20;99.30
23748;DHT22;12054;53.662;10.126;2023-06-14T03:08:11;16.20;99.40
23748;DHT22;12054;53.662;10.126;2023-06-14T03:10:50;16.10;99.40
23748;DHT22;12054;53.662;10.126;2023-06-14T03:13:16;16.10;99.50
23748;DHT22;12054;53.662;10.126;2023-06-14T03:15:42;16.10;99.60
23748;DHT22;12054;53.662;10.126;2023-06-14T03:18:10;16.10;99.70
23748;DHT22;12054;53.662;10.126;2023-06-14T03:20:37;16.10;99.80
23748;DHT22;12054;53.662;10.126;2023-06-14T03:23:03;16.10;99.90
23748;DHT22;12054;53.662;10.126;2023-06-14T03:25:30;16.00;99.90
23748;DHT22;12054;53.662;10.126;2023-06-14T03:27:56;16.00;99.90
23748;DHT22;12054;53.662;10.126;2023-06-14T03:30:22;16.00;99.90
23748;DHT22;12054;53.662;10.126;2023-06-14T03:32:47;16.00;99.90
23748;DHT22;12054;53.662;10.126;2023-06-14T03:35:13;16.00;99.90
23748;DHT22;12054;53.662;10.126;2023-06-14T03:37:43;15.90;99.90
23748;DHT22;12054;53.662;10.126;2023-06-14T03:40:10;15.90;99.90
23748;DHT22;12054;53.662;10.126;2023-06-14T03:42:36;16.00;99.90
23748;DHT22;12054;53.662;10.126;2023-06-14T03:45:02;15.90;99.90
23748;DHT22;12054;53.662;10.126;2023-06-14T03:47:27;15.90;99.90
23748;DHT22;12054;53.662;10.126;2023-06-14T03:49:53;15.90;99.90
23748;DHT22;12054;53.662;10.126;2023-06-14T03:52:18;15.90;99.90
23748;DHT22;12054;53.662;10.126;2023-06-14T03:54:44;15.90;99.90
23748;DHT22;12054;53.662;10.126;2023-06-14T03:57:10;15.80;99.90
23748;DHT22;12054;53.662;10.126;2023-06-14T03:59:36;15.80;99.90
23748;DHT22;12054;53.662;10.126;2023-06-14T04:02:02;15.80;99.90
23748;DHT22;12054;53.662;10.126;2023-06-14T04:04:28;15.80;99.90
23748;DHT22;12054;53.662;10.126;2023-06-14T04:06:54;15.80;99.90
23748;DHT22;12054;53.662;10.126;2023-06-14T04:09:20;15.80;99.90
23748;DHT22;12054;53.662;10.126;2023-06-14T04:11:46;15.80;99.90
23748;DHT22;12054;53.662;10.126;2023-06-14T04:14:11;15.70;99.90
23748;DHT22;12054;53.662;10.126;2023-06-14T04:16:37;15.70;99.90
23748;DHT22;12054;53.662;10.126;2023-06-14T04:19:03;15.80;99.90
23748;DHT22;12054;53.662;10.126;2023-06-14T04:21:28;15.80;99.90
23748;DHT22;12054;53.662;10.126;2023-06-14T04:23:54;15.80;99.90
23748;DHT22;12054;53.662;10.126;2023-06-14T04:26:21;15.80;99.90
23748;DHT22;12054;53.662;10.126;2023-06-14T04:28:49;15.80;99.90
23748;DHT22;12054;53.662;10.126;2023-06-14T04:31:15;15.80;99.90
23748;DHT22;12054;53.662;10.126;2023-06-14T04:33:41;15.70;99.90
23748;DHT22;12054;53.662;10.126;2023-06-14T04:36:12;15.80;99.90
23748;DHT22;12054;53.662;10.126;2023-06-14T04:38:39;15.80;99.90
23748;DHT22;12054;53.662;10.126;2023-06-14T04:41:05;15.80;99.90
23748;DHT22;12054;53.662;10.126;2023-06-14T04:43:31;15.80;99.90
23748;DHT22;12054;53.662;10.126;2023-06-14T04:46:06;15.80;99.90
23748;DHT22;12054;53.662;10.126;2023-06-14T04:48:36;15.80;99.90
23748;DHT22;12054;53.662;10.126;2023-06-14T04:51:02;15.80;99.90
23748;DHT22;12054;53.662;10.126;2023-06-14T04:53:29;15.90;99.90
23748;DHT22;12054;53.662;10.126;2023-06-14T04:55:55;15.90;99.90
23748;DHT22;12054;53.662;10.126;2023-06-14T04:58:20;15.90;99.90
23748;DHT22;12054;53.662;10.126;2023-06-14T05:00:46;15.90;99.90
23748;DHT22;12054;53.662;10.126;2023-06-14T05:03:11;15.90;99.90
23748;DHT22;12054;53.662;10.126;2023-06-14T05:05:41;16.00;99.90
23748;DHT22;12054;53.662;10.126;2023-06-14T05:08:07;15.90;99.90
23748;DHT22;12054;53.662;10.126;2023-06-14T05:10:33;16.00;99.90
23748;DHT22;12054;53.662;10.126;2023-06-14T05:13:01;16.00;99.90
23748;DHT22;12054;53.662;10.126;2023-06-14T05:15:27;16.00;99.90
23748;DHT22;12054;53.662;10.126;2023-06-14T05:17:54;16.00;99.90
23748;DHT22;12054;53.662;10.126;2023-06-14T05:20:22;16.00;99.90
23748;DHT22;12054;53.662;10.126;2023-06-14T05:22:54;16.00;99.90
23748;DHT22;12054;53.662;10.126;2023-06-14T05:25:20;16.00;99.90
23748;DHT22;12054;53.662;10.126;2023-06-14T05:27:46;16.10;99.90
23748;DHT22;12054;53.662;10.126;2023-06-14T05:30:13;16.00;99.90
23748;DHT22;12054;53.662;10.126;2023-06-14T05:32:38;16.00;99.90
23748;DHT22;12054;53.662;10.126;2023-06-14T05:35:04;16.00;99.90
23748;DHT22;12054;53.662;10.126;2023-06-14T05:37:31;16.10;99.90
23748;DHT22;12054;53.662;10.126;2023-06-14T05:39:56;16.10;99.90
23748;DHT22;12054;53.662;10.126;2023-06-14T05:42:22;16.10;99.90
23748;DHT22;12054;53.662;10.126;2023-06-14T05:44:48;16.10;99.90
23748;DHT22;12054;53.662;10.126;2023-06-14T05:47:13;16.20;99.90
23748;DHT22;12054;53.662;10.126;2023-06-14T05:49:39;16.20;99.90
23748;DHT22;12054;53.662;10.126;2023-06-14T05:52:05;16.20;99.90
23748;DHT22;12054;53.662;10.126;2023-06-14T05:54:31;16.30;99.90
23748;DHT22;12054;53.662;10.126;2023-06-14T05:56:56;16.30;99.90
23748;DHT22;12054;53.662;10.126;2023-06-14T05:59:27;16.30;99.90
23748;DHT22;12054;53.662;10.126;2023-06-14T06:01:52;16.30;99.90
23748;DHT22;12054;53.662;10.126;2023-06-14T06:04:18;16.40;99.90
23748;DHT22;12054;53.662;10.126;2023-06-14T06:06:44;16.40;99.90
23748;DHT22;12054;53.662;10.126;2023-06-14T06:09:10;16.40;99.90
23748;DHT22;12054;53.662;10.126;2023-06-14T06:11:35;16.50;99.90
23748;DHT22;12054;53.662;10.126;2023-06-14T06:14:01;16.50;99.90
23748;DHT22;12054;53.662;10.126;2023-06-14T06:16:27;16.60;99.90
23748;DHT22;12054;53.662;10.126;2023-06-14T06:18:52;16.60;99.90
23748;DHT22;12054;53.662;10.126;2023-06-14T06:21:18;16.70;99.90
23748;DHT22;12054;53.662;10.126;2023-06-14T06:23:43;16.70;99.90
23748;DHT22;12054;53.662;10.126;2023-06-14T06:26:09;16.70;99.90
23748;DHT22;12054;53.662;10.126;2023-06-14T06:28:34;16.80;99.90
23748;DHT22;12054;53.662;10.126;2023-06-14T06:31:00;16.90;99.90
23748;DHT22;12054;53.662;10.126;2023-06-14T06:33:25;16.90;99.90
23748;DHT22;12054;53.662;10.126;2023-06-14T06:35:51;17.00;99.90
23748;DHT22;12054;53.662;10.126;2023-06-14T06:38:16;17.10;99.90
23748;DHT22;12054;53.662;10.126;2023-06-14T06:40:44;17.10;99.90
23748;DHT22;12054;53.662;10.126;2023-06-14T06:43:09;17.20;99.90
23748;DHT22;12054;53.662;10.126;2023-06-14T06:45:41;17.30;99.90
23748;DHT22;12054;53.662;10.126;2023-06-14T06:48:07;17.30;99.90
23748;DHT22;12054;53.662;10.126;2023-06-14T06:50:33;17.40;99.90
23748;DHT22;12054;53.662;10.126;2023-06-14T06:52:59;17.50;99.90
23748;DHT22;12054;53.662;10.126;2023-06-14T06:55:24;17.60;99.90
23748;DHT22;12054;53.662;10.126;2023-06-14T06:57:50;17.70;99.90
23748;DHT22;12054;53.662;10.126;2023-06-14T07:00:19;17.80;99.90
23748;DHT22;12054;53.662;10.126;2023-06-14T07:02:44;18.00;99.90
23748;DHT22;12054;53.662;10.126;2023-06-14T07:05:10;18.10;99.90
23748;DHT22;12054;53.662;10.126;2023-06-14T07:07:35;18.20;99.90
23748;DHT22;12054;53.662;10.126;2023-06-14T07:10:01;18.40;99.90
23748;DHT22;12054;53.662;10.126;2023-06-14T07:12:30;18.50;99.90
23748;DHT22;12054;53.662;10.126;2023-06-14T07:14:57;18.60;99.90
23748;DHT22;12054;53.662;10.126;2023-06-14T07:17:22;18.70;99.90
23748;DHT22;12054;53.662;10.126;2023-06-14T07:19:48;18.90;99.90
23748;DHT22;12054;53.662;10.126;2023-06-14T07:22:13;19.00;99.90
23748;DHT22;12054;53.662;10.126;2023-06-14T07:24:39;19.20;99.90
23748;DHT22;12054;53.662;10.126;2023-06-14T07:27:05;19.40;99.90
23748;DHT22;12054;53.662;10.126;2023-06-14T07:29:31;19.60;99.80
23748;DHT22;12054;53.662;10.126;2023-06-14T07:31:56;19.80;98.80
23748;DHT22;12054;53.662;10.126;2023-06-14T07:34:22;19.90;98.50
23748;DHT22;12054;53.662;10.126;2023-06-14T07:36:47;20.00;98.50
23748;DHT22;12054;53.662;10.126;2023-06-14T07:39:13;20.20;98.10
23748;DHT22;12054;53.662;10.126;2023-06-14T07:41:39;20.30;97.90
23748;DHT22;12054;53.662;10.126;2023-06-14T07:44:04;20.40;97.40
23748;DHT22;12054;53.662;10.126;2023-06-14T07:46:30;20.60;96.90
23748;DHT22;12054;53.662;10.126;2023-06-14T07:48:55;20.70;96.50
23748;DHT22;12054;53.662;10.126;2023-06-14T07:51:21;20.80;95.70
23748;DHT22;12054;53.662;10.126;2023-06-14T07:53:48;20.90;95.80
23748;DHT22;12054;53.662;10.126;2023-06-14T07:56:14;21.00;95.30
23748;DHT22;12054;53.662;10.126;2023-06-14T07:58:39;21.10;94.70
23748;DHT22;12054;53.662;10.126;2023-06-14T08:01:05;21.20;94.30
23748;DHT22;12054;53.662;10.126;2023-06-14T08:03:33;21.30;94.30
23748;DHT22;12054;53.662;10.126;2023-06-14T08:05:58;21.50;93.80
23748;DHT22;12054;53.662;10.126;2023-06-14T08:08:24;21.60;93.00
23748;DHT22;12054;53.662;10.126;2023-06-14T08:10:50;21.70;92.60
23748;DHT22;12054;53.662;10.126;2023-06-14T08:13:15;21.80;92.20
23748;DHT22;12054;53.662;10.126;2023-06-14T08:15:41;21.90;91.80
23748;DHT22;12054;53.662;10.126;2023-06-14T08:18:06;22.00;91.60
23748;DHT22;12054;53.662;10.126;2023-06-14T08:20:32;22.10;91.20
23748;DHT22;12054;53.662;10.126;2023-06-14T08:22:58;22.20;91.10
23748;DHT22;12054;53.662;10.126;2023-06-14T08:25:24;22.30;90.50
23748;DHT22;12054;53.662;10.126;2023-06-14T08:27:49;22.30;90.00
23748;DHT22;12054;53.662;10.126;2023-06-14T08:30:15;22.40;89.50
23748;DHT22;12054;53.662;10.126;2023-06-14T08:32:42;22.40;88.60
23748;DHT22;12054;53.662;10.126;2023-06-14T08:35:08;22.50;88.80
23748;DHT22;12054;53.662;10.126;2023-06-14T08:37:38;22.60;88.90
23748;DHT22;12054;53.662;10.126;2023-06-14T08:40:27;22.70;89.10
23748;DHT22;12054;53.662;10.126;2023-06-14T08:42:54;22.80;89.40
23748;DHT22;12054;53.662;10.126;2023-06-14T08:45:24;22.90;89.70
23748;DHT22;12054;53.662;10.126;2023-06-14T08:47:50;23.00;89.60
23748;DHT22;12054;53.662;10.126;2023-06-14T08:50:26;23.10;89.70
23748;DHT22;12054;53.662;10.126;2023-06-14T08:52:55;23.20;87.90
23748;DHT22;12054;53.662;10.126;2023-06-14T08:55:23;23.30;88.00
23748;DHT22;12054;53.662;10.126;2023-06-14T08:57:53;23.30;85.90
23748;DHT22;12054;53.662;10.126;2023-06-14T09:00:20;23.40;85.90
23748;DHT22;12054;53.662;10.126;2023-06-14T09:02:46;23.50;86.50
23748;DHT22;12054;53.662;10.126;2023-06-14T09:05:12;23.60;85.70
23748;DHT22;12054;53.662;10.126;2023-06-14T09:07:43;23.60;84.90
23748;DHT22;12054;53.662;10.126;2023-06-14T09:10:11;23.70;84.90
23748;DHT22;12054;53.662;10.126;2023-06-14T09:12:37;23.70;84.50
23748;DHT22;12054;53.662;10.126;2023-06-14T09:15:04;23.80;83.90
23748;DHT22;12054;53.662;10.126;2023-06-14T09:17:40;23.90;84.40
23748;DHT22;12054;53.662;10.126;2023-06-14T09:20:08;23.90;84.50
23748;DHT22;12054;53.662;10.126;2023-06-14T09:22:36;24.00;83.00
23748;DHT22;12054;53.662;10.126;2023-06-14T09:25:03;24.00;81.40
23748;DHT22;12054;53.662;10.126;2023-06-14T09:27:30;24.00;80.60
23748;DHT22;12054;53.662;10.126;2023-06-14T09:29:55;24.10;80.10
23748;DHT22;12054;53.662;10.126;2023-06-14T09:32:21;24.10;79.70
23748;DHT22;12054;53.662;10.126;2023-06-14T09:34:48;24.10;79.80
23748;DHT22;12054;53.662;10.126;2023-06-14T09:37:29;24.20;80.00
23748;DHT22;12054;53.662;10.126;2023-06-14T09:39:55;24.30;79.20
23748;DHT22;12054;53.662;10.126;2023-06-14T09:42:21;24.30;78.50
23748;DHT22;12054;53.662;10.126;2023-06-14T09:44:48;24.30;78.20
23748;DHT22;12054;53.662;10.126;2023-06-14T09:47:15;24.40;78.40
23748;DHT22;12054;53.662;10.126;2023-06-14T09:49:44;24.50;78.60
23748;DHT22;12054;53.662;10.126;2023-06-14T09:52:15;24.50;79.20
23748;DHT22;12054;53.662;10.126;2023-06-14T09:54:42;24.60;79.10
23748;DHT22;12054;53.662;10.126;2023-06-14T09:57:12;24.60;76.80
23748;DHT22;12054;53.662;10.126;2023-06-14T09:59:42;24.60;75.80
23748;DHT22;12054;53.662;10.126;2023-06-14T10:02:28;24.60;76.10
23748;DHT22;12054;53.662;10.126;2023-06-14T10:05:08;24.60;76.60
23748;DHT22;12054;53.662;10.126;2023-06-14T10:07:42;24.70;76.70
23748;DHT22;12054;53.662;10.126;2023-06-14T10:10:09;24.80;76.80
23748;DHT22;12054;53.662;10.126;2023-06-14T10:12:35;24.90;76.30
23748;DHT22;12054;53.662;10.126;2023-06-14T10:15:01;25.00;76.70
23748;DHT22;12054;53.662;10.126;2023-06-14T10:17:47;25.00;76.80
23748;DHT22;12054;53.662;10.126;2023-06-14T10:20:44;25.10;75.10
23748;DHT22;12054;53.662;10.126;2023-06-14T10:23:17;25.20;75.40
23748;DHT22;12054;53.662;10.126;2023-06-14T10:25:44;25.30;76.20
23748;DHT22;12054;53.662;10.126;2023-06-14T10:28:19;25.30;73.60
23748;DHT22;12054;53.662;10.126;2023-06-14T10:33:32;25.40;71.60
23748;DHT22;12054;53.662;10.126;2023-06-14T10:36:27;25.50;71.50
23748;DHT22;12054;53.662;10.126;2023-06-14T10:39:06;25.60;71.60
23748;DHT22;12054;53.662;10.126;2023-06-14T10:41:36;25.60;71.20
23748;DHT22;12054;53.662;10.126;2023-06-14T10:46:40;25.60;72.80
23748;DHT22;12054;53.662;10.126;2023-06-14T10:49:06;25.60;72.80
23748;DHT22;12054;53.662;10.126;2023-06-14T10:51:42;25.50;71.80
23748;DHT22;12054;53.662;10.126;2023-06-14T10:54:15;25.50;71.80
23748;DHT22;12054;53.662;10.126;2023-06-14T10:56:52;25.60;71.50
23748;DHT22;12054;53.662;10.126;2023-06-14T10:59:19;25.60;71.20
23748;DHT22;12054;53.662;10.126;2023-06-14T11:02:20;25.70;72.00
23748;DHT22;12054;53.662;10.126;2023-06-14T11:04:53;25.90;73.40
23748;DHT22;12054;53.662;10.126;2023-06-14T11:10:41;25.90;71.40
23748;DHT22;12054;53.662;10.126;2023-06-14T11:13:08;25.90;71.50
23748;DHT22;12054;53.662;10.126;2023-06-14T11:15:36;26.00;71.20
23748;DHT22;12054;53.662;10.126;2023-06-14T11:18:04;26.10;71.00
23748;DHT22;12054;53.662;10.126;2023-06-14T11:20:32;26.20;71.20
23748;DHT22;12054;53.662;10.126;2023-06-14T11:22:57;26.30;70.00
23748;DHT22;12054;53.662;10.126;2023-06-14T11:25:23;26.30;69.30
23748;DHT22;12054;53.662;10.126;2023-06-14T11:27:50;26.30;69.80
23748;DHT22;12054;53.662;10.126;2023-06-14T11:30:16;26.30;69.80
23748;DHT22;12054;53.662;10.126;2023-06-14T11:32:45;26.30;69.50
23748;DHT22;12054;53.662;10.126;2023-06-14T11:35:11;26.30;68.30
23748;DHT22;12054;53.662;10.126;2023-06-14T11:37:37;26.20;68.50
23748;DHT22;12054;53.662;10.126;2023-06-14T11:40:04;26.20;68.00
23748;DHT22;12054;53.662;10.126;2023-06-14T11:42:35;26.20;68.70
23748;DHT22;12054;53.662;10.126;2023-06-14T11:45:01;26.10;69.10
23748;DHT22;12054;53.662;10.126;2023-06-14T11:47:32;26.10;68.30
23748;DHT22;12054;53.662;10.126;2023-06-14T11:49:59;26.20;68.70
23748;DHT22;12054;53.662;10.126;2023-06-14T11:52:25;26.30;69.20
23748;DHT22;12054;53.662;10.126;2023-06-14T11:54:51;26.40;69.30
23748;DHT22;12054;53.662;10.126;2023-06-14T11:57:18;26.40;69.60
23748;DHT22;12054;53.662;10.126;2023-06-14T11:59:44;26.40;68.10
23748;DHT22;12054;53.662;10.126;2023-06-14T12:02:21;26.40;68.00
23748;DHT22;12054;53.662;10.126;2023-06-14T12:04:47;26.30;67.20
23748;DHT22;12054;53.662;10.126;2023-06-14T12:07:15;26.20;68.10
23748;DHT22;12054;53.662;10.126;2023-06-14T12:10:03;26.20;68.00
23748;DHT22;12054;53.662;10.126;2023-06-14T12:12:35;26.30;66.70
23748;DHT22;12054;53.662;10.126;2023-06-14T12:15:03;26.30;65.80
23748;DHT22;12054;53.662;10.126;2023-06-14T12:17:32;26.30;67.50
23748;DHT22;12054;53.662;10.126;2023-06-14T12:19:57;26.40;66.10
23748;DHT22;12054;53.662;10.126;2023-06-14T12:22:23;26.50;66.90
23748;DHT22;12054;53.662;10.126;2023-06-14T12:24:48;26.40;67.00
23748;DHT22;12054;53.662;10.126;2023-06-14T12:27:14;26.40;66.60
23748;DHT22;12054;53.662;10.126;2023-06-14T12:29:44;26.20;66.40
23748;DHT22;12054;53.662;10.126;2023-06-14T12:32:10;26.20;67.50
23748;DHT22;12054;53.662;10.126;2023-06-14T12:34:35;26.20;68.80
23748;DHT22;12054;53.662;10.126;2023-06-14T12:37:01;26.20;67.80
23748;DHT22;12054;53.662;10.126;2023-06-14T12:39:29;26.30;67.40
23748;DHT22;12054;53.662;10.126;2023-06-14T12:41:57;26.30;67.20
23748;DHT22;12054;53.662;10.126;2023-06-14T12:44:22;26.40;68.10
23748;DHT22;12054;53.662;10.126;2023-06-14T12:46:48;26.40;67.30
23748;DHT22;12054;53.662;10.126;2023-06-14T12:49:16;26.30;66.40
23748;DHT22;12054;53.662;10.126;2023-06-14T12:51:42;26.30;67.20
23748;DHT22;12054;53.662;10.126;2023-06-14T12:54:07;26.30;66.80
23748;DHT22;12054;53.662;10.126;2023-06-14T12:56:33;26.30;67.10
23748;DHT22;12054;53.662;10.126;2023-06-14T12:58:59;26.30;67.00
23748;DHT22;12054;53.662;10.126;2023-06-14T13:01:24;26.40;66.80
23748;DHT22;12054;53.662;10.126;2023-06-14T13:03:50;26.30;66.10
23748;DHT22;12054;53.662;10.126;2023-06-14T13:06:17;26.30;66.50
23748;DHT22;12054;53.662;10.126;2023-06-14T13:08:42;26.20;66.60
23748;DHT22;12054;53.662;10.126;2023-06-14T13:11:08;26.30;67.20
23748;DHT22;12054;53.662;10.126;2023-06-14T13:13:34;26.30;67.10
23748;DHT22;12054;53.662;10.126;2023-06-14T13:15:59;26.40;66.00
23748;DHT22;12054;53.662;10.126;2023-06-14T13:18:25;26.50;65.00
23748;DHT22;12054;53.662;10.126;2023-06-14T13:20:51;26.50;64.10
23748;DHT22;12054;53.662;10.126;2023-06-14T13:23:17;26.50;63.50
23748;DHT22;12054;53.662;10.126;2023-06-14T13:25:43;26.50;62.80
23748;DHT22;12054;53.662;10.126;2023-06-14T13:28:08;26.50;62.70
23748;DHT22;12054;53.662;10.126;2023-06-14T13:30:34;26.50;64.00
23748;DHT22;12054;53.662;10.126;2023-06-14T13:33:00;26.50;63.20
23748;DHT22;12054;53.662;10.126;2023-06-14T13:35:26;26.50;63.20
23748;DHT22;12054;53.662;10.126;2023-06-14T13:37:52;26.50;63.80
23748;DHT22;12054;53.662;10.126;2023-06-14T13:40:18;26.50;63.80
23748;DHT22;12054;53.662;10.126;2023-06-14T13:42:43;26.50;63.40
23748;DHT22;12054;53.662;10.126;2023-06-14T13:45:10;26.40;62.90
23748;DHT22;12054;53.662;10.126;2023-06-14T13:47:36;26.30;62.00
23748;DHT22;12054;53.662;10.126;2023-06-14T13:50:02;26.30;61.50
23748;DHT22;12054;53.662;10.126;2023-06-14T13:52:28;26.30;62.20
23748;DHT22;12054;53.662;10.126;2023-06-14T13:54:54;26.40;62.90
23748;DHT22;12054;53.662;10.126;2023-06-14T13:57:20;26.40;61.70
23748;DHT22;12054;53.662;10.126;2023-06-14T13:59:45;26.40;61.00
23748;DHT22;12054;53.662;10.126;2023-06-14T14:02:11;26.40;61.50
23748;DHT22;12054;53.662;10.126;2023-06-14T14:04:38;26.50;61.10
23748;DHT22;12054;53.662;10.126;2023-06-14T14:07:04;26.50;60.90
23748;DHT22;12054;53.662;10.126;2023-06-14T14:09:31;26.50;61.50
23748;DHT22;12054;53.662;10.126;2023-06-14T14:11:58;26.50;61.80
23748;DHT22;12054;53.662;10.126;2023-06-14T14:14:23;26.40;61.90
23748;DHT22;12054;53.662;10.126;2023-06-14T14:16:49;26.30;60.70
23748;DHT22;12054;53.662;10.126;2023-06-14T14:19:17;26.30;60.40
23748;DHT22;12054;53.662;10.126;2023-06-14T14:21:44;26.20;60.20
23748;DHT22;12054;53.662;10.126;2023-06-14T14:24:10;26.10;60.10
23748;DHT22;12054;53.662;10.126;2023-06-14T14:26:35;26.10;60.20
23748;DHT22;12054;53.662;10.126;2023-06-14T14:29:01;26.00;61.00
23748;DHT22;12054;53.662;10.126;2023-06-14T14:31:28;25.90;61.00
23748;DHT22;12054;53.662;10.126;2023-06-14T14:33:53;25.90;61.10
23748;DHT22;12054;53.662;10.126;2023-06-14T14:36:19;25.90;60.70
23748;DHT22;12054;53.662;10.126;2023-06-14T14:38:44;25.90;60.70
23748;DHT22;12054;53.662;10.126;2023-06-14T14:41:10;25.90;60.60
23748;DHT22;12054;53.662;10.126;2023-06-14T14:43:36;25.90;60.30
23748;DHT22;12054;53.662;10.126;2023-06-14T14:46:01;25.80;60.40
23748;DHT22;12054;53.662;10.126;2023-06-14T14:48:28;25.70;60.30
23748;DHT22;12054;53.662;10.126;2023-06-14T14:50:53;25.60;59.90
23748;DHT22;12054;53.662;10.126;2023-06-14T14:53:19;25.50;59.80
23748;DHT22;12054;53.662;10.126;2023-06-14T14:55:44;25.50;60.20
23748;DHT22;12054;53.662;10.126;2023-06-14T14:58:12;25.40;60.50
23748;DHT22;12054;53.662;10.126;2023-06-14T15:00:38;25.40;60.90
23748;DHT22;12054;53.662;10.126;2023-06-14T15:03:03;25.30;61.30
23748;DHT22;12054;53.662;10.126;2023-06-14T15:05:29;25.30;61.40
23748;DHT22;12054;53.662;10.126;2023-06-14T15:07:58;25.30;61.50
23748;DHT22;12054;53.662;10.126;2023-06-14T15:10:23;25.30;61.70
23748;DHT22;12054;53.662;10.126;2023-06-14T15:12:49;25.30;61.00
23748;DHT22;12054;53.662;10.126;2023-06-14T15:15:15;25.20;60.60
23748;DHT22;12054;53.662;10.126;2023-06-14T15:17:40;25.20;59.90
23748;DHT22;12054;53.662;10.126;2023-06-14T15:20:06;25.10;59.70
23748;DHT22;12054;53.662;10.126;2023-06-14T15:22:41;25.00;59.80
23748;DHT22;12054;53.662;10.126;2023-06-14T15:25:10;24.90;60.30